createdAt,value
2017-05-17T00:00:18.049Z,0
2017-05-17T00:01:17.738Z,0
2017-05-17T00:02:18.110Z,0
2017-05-17T00:03:17.450Z,0
2017-05-17T00:04:17.765Z,0
2017-05-17T00:05:17.147Z,0
2017-05-17T00:06:17.780Z,0
2017-05-17T00:07:18.098Z,0
2017-05-17T00:08:17.796Z,0
2017-05-17T00:09:18.117Z,0
2017-05-17T00:10:17.816Z,0
2017-05-17T00:11:18.131Z,0
2017-05-17T00:12:17.828Z,0
2017-05-17T00:13:17.529Z,0
2017-05-17T00:14:18.155Z,0
2017-05-17T00:15:17.851Z,0
2017-05-17T00:16:17.855Z,0
2017-05-17T00:17:17.248Z,0
2017-05-17T00:18:17.929Z,0
2017-05-17T00:19:17.946Z,0
2017-05-17T00:20:17.899Z,0
2017-05-17T00:21:17.944Z,0
2017-05-17T00:22:18.215Z,0
2017-05-17T00:23:18.231Z,0
2017-05-17T00:24:17.972Z,0
2017-05-17T00:25:18.244Z,0
2017-05-17T00:26:17.935Z,0
2017-05-17T00:27:18.263Z,0
2017-05-17T00:28:17.964Z,0
2017-05-17T00:29:18.329Z,0
2017-05-17T00:30:17.806Z,0
2017-05-17T00:31:17.976Z,0
2017-05-17T00:32:18.297Z,0
2017-05-17T00:33:18.301Z,0
2017-05-17T00:34:18.314Z,0
2017-05-17T00:35:18.014Z,0
2017-05-17T00:36:17.755Z,0
2017-05-17T00:37:17.714Z,0
2017-05-17T00:38:18.041Z,0
2017-05-17T00:39:18.352Z,0
2017-05-17T00:40:17.737Z,0
2017-05-17T00:41:18.053Z,0
2017-05-17T00:42:18.376Z,0
2017-05-17T00:43:17.859Z,0
2017-05-17T00:44:17.824Z,0
2017-05-17T00:45:18.395Z,0
2017-05-17T00:46:18.104Z,0
2017-05-17T00:47:17.842Z,0
2017-05-17T00:48:18.433Z,0
2017-05-17T00:49:17.809Z,0
2017-05-17T00:50:17.867Z,0
2017-05-17T00:51:18.145Z,0
2017-05-17T00:52:18.507Z,0
2017-05-17T00:53:18.154Z,0
2017-05-17T00:54:18.473Z,0
2017-05-17T00:55:18.528Z,0
2017-05-17T00:56:18.170Z,0
2017-05-17T00:57:18.248Z,0
2017-05-17T00:58:18.244Z,0
2017-05-17T00:59:18.200Z,0
2017-05-17T01:00:17.895Z,0
2017-05-17T01:01:18.264Z,0
2017-05-17T01:02:18.276Z,0
2017-05-17T01:03:18.233Z,0
2017-05-17T01:04:18.282Z,0
2017-05-17T01:05:18.557Z,0
2017-05-17T01:06:18.665Z,0
2017-05-17T01:07:18.621Z,0
2017-05-17T01:08:18.604Z,0
2017-05-17T01:09:18.593Z,0
2017-05-17T01:10:18.284Z,0
2017-05-17T01:11:18.659Z,0
2017-05-17T01:12:18.663Z,0
2017-05-17T01:13:18.619Z,0
2017-05-17T01:14:18.321Z,0
2017-05-17T01:15:18.025Z,0
2017-05-17T01:16:18.701Z,0
2017-05-17T01:17:18.388Z,0
2017-05-17T01:18:18.661Z,0
2017-05-17T01:19:18.771Z,0
2017-05-17T01:20:18.367Z,0
2017-05-17T01:21:18.372Z,0
2017-05-17T01:22:18.070Z,0
2017-05-17T01:23:18.081Z,0
2017-05-17T01:24:18.708Z,0
2017-05-17T01:25:18.765Z,0
2017-05-17T01:26:18.416Z,0
2017-05-17T01:27:18.786Z,0
2017-05-17T01:28:18.525Z,0
2017-05-17T01:29:18.806Z,0
2017-05-17T01:30:18.444Z,0
2017-05-17T01:31:18.765Z,0
2017-05-17T01:32:18.149Z,0
2017-05-17T01:33:18.474Z,0
2017-05-17T01:34:18.482Z,0
2017-05-17T01:35:18.793Z,0
2017-05-17T01:36:18.177Z,0
2017-05-17T01:37:18.808Z,0
2017-05-17T01:38:18.871Z,0
2017-05-17T01:39:19.129Z,0
2017-05-17T01:40:18.841Z,0
2017-05-17T01:41:18.222Z,0
2017-05-17T01:42:18.544Z,0
2017-05-17T01:43:18.598Z,0
2017-05-17T01:44:18.918Z,0
2017-05-17T01:45:18.878Z,0
2017-05-17T01:46:18.315Z,0
2017-05-17T01:47:18.892Z,0
2017-05-17T01:48:18.960Z,0
2017-05-17T01:49:18.907Z,0
2017-05-17T01:50:18.910Z,0
2017-05-17T01:51:18.352Z,0
2017-05-17T01:52:18.306Z,0
2017-05-17T01:53:18.369Z,0
2017-05-17T01:54:18.945Z,0
2017-05-17T01:55:18.952Z,0
2017-05-17T01:56:19.058Z,0
2017-05-17T01:57:18.657Z,0
2017-05-17T01:58:18.351Z,0
2017-05-17T01:59:18.979Z,0
2017-05-17T02:00:18.732Z,0
2017-05-17T02:01:18.996Z,0
2017-05-17T02:02:18.387Z,0
2017-05-17T02:03:18.395Z,0
2017-05-17T02:04:18.814Z,0
2017-05-17T02:05:19.037Z,0
2017-05-17T02:06:18.728Z,0
2017-05-17T02:07:19.056Z,0
2017-05-17T02:08:19.108Z,0
2017-05-17T02:09:18.438Z,0
2017-05-17T02:10:18.199Z,0
2017-05-17T02:11:19.143Z,0
2017-05-17T02:12:19.084Z,0
2017-05-17T02:13:19.095Z,0
2017-05-17T02:14:19.097Z,0
2017-05-17T02:15:19.117Z,0
2017-05-17T02:16:19.111Z,0
2017-05-17T02:17:19.178Z,0
2017-05-17T02:18:18.211Z,0
2017-05-17T02:19:18.837Z,0
2017-05-17T02:20:19.194Z,0
2017-05-17T02:21:19.162Z,0
2017-05-17T02:22:18.855Z,0
2017-05-17T02:23:19.273Z,0
2017-05-17T02:24:18.564Z,0
2017-05-17T02:25:18.587Z,0
2017-05-17T02:26:18.939Z,0
2017-05-17T02:27:19.261Z,0
2017-05-17T02:28:18.898Z,0
2017-05-17T02:29:19.216Z,0
2017-05-17T02:30:18.921Z,0
2017-05-17T02:31:18.973Z,0
2017-05-17T02:32:19.252Z,0
2017-05-17T02:33:19.254Z,0
2017-05-17T02:34:18.644Z,0
2017-05-17T02:35:19.324Z,0
2017-05-17T02:36:19.026Z,0
2017-05-17T02:37:19.348Z,0
2017-05-17T02:38:18.980Z,0
2017-05-17T02:39:18.991Z,0
2017-05-17T02:40:18.999Z,0
2017-05-17T02:41:18.693Z,0
2017-05-17T02:42:19.056Z,0
2017-05-17T02:43:19.367Z,0
2017-05-17T02:44:19.029Z,0
2017-05-17T02:45:19.035Z,0
2017-05-17T02:46:19.092Z,0
2017-05-17T02:47:19.363Z,0
2017-05-17T02:48:19.378Z,0
2017-05-17T02:49:19.168Z,0
2017-05-17T02:50:19.070Z,0
2017-05-17T02:51:19.508Z,0
2017-05-17T02:52:19.448Z,0
2017-05-17T02:53:19.412Z,0
2017-05-17T02:54:19.208Z,0
2017-05-17T02:55:19.216Z,0
2017-05-17T02:56:19.124Z,0
2017-05-17T02:57:19.132Z,0
2017-05-17T02:58:19.227Z,0
2017-05-17T02:59:18.840Z,0
2017-05-17T03:00:19.517Z,0
2017-05-17T03:01:18.642Z,0
2017-05-17T03:02:19.481Z,0
2017-05-17T03:03:19.501Z,0
2017-05-17T03:04:19.495Z,0
2017-05-17T03:05:19.506Z,0
2017-05-17T03:06:19.255Z,0
2017-05-17T03:07:19.530Z,0
2017-05-17T03:08:19.219Z,0
2017-05-17T03:09:19.230Z,0
2017-05-17T03:10:19.231Z,0
2017-05-17T03:11:18.942Z,0
2017-05-17T03:12:19.558Z,0
2017-05-17T03:13:19.311Z,0
2017-05-17T03:14:19.011Z,0
2017-05-17T03:15:19.324Z,0
2017-05-17T03:16:18.975Z,0
2017-05-17T03:17:19.604Z,0
2017-05-17T03:18:19.604Z,0
2017-05-17T03:19:19.413Z,0
2017-05-17T03:20:19.673Z,0
2017-05-17T03:21:19.371Z,0
2017-05-17T03:22:19.685Z,0
2017-05-17T03:23:19.645Z,0
2017-05-17T03:24:18.728Z,0
2017-05-17T03:25:19.660Z,0
2017-05-17T03:26:19.359Z,0
2017-05-17T03:27:19.060Z,0
2017-05-17T03:28:19.427Z,0
2017-05-17T03:29:19.479Z,0
2017-05-17T03:30:19.435Z,0
2017-05-17T03:31:19.759Z,0
2017-05-17T03:32:18.783Z,0
2017-05-17T03:33:19.775Z,0
2017-05-17T03:34:19.112Z,0
2017-05-17T03:35:19.736Z,0
2017-05-17T03:36:19.749Z,0
2017-05-17T03:37:19.446Z,0
2017-05-17T03:38:19.816Z,0
2017-05-17T03:39:19.560Z,0
2017-05-17T03:40:19.206Z,0
2017-05-17T03:41:19.528Z,0
2017-05-17T03:42:19.794Z,0
2017-05-17T03:43:19.815Z,0
2017-05-17T03:44:19.819Z,0
2017-05-17T03:45:19.820Z,0
2017-05-17T03:46:19.523Z,0
2017-05-17T03:47:19.570Z,0
2017-05-17T03:48:19.845Z,0
2017-05-17T03:49:19.688Z,0
2017-05-17T03:50:19.545Z,0
2017-05-17T03:51:19.609Z,0
2017-05-17T03:52:19.559Z,0
2017-05-17T03:53:18.953Z,0
2017-05-17T03:54:19.588Z,0
2017-05-17T03:55:19.898Z,0
2017-05-17T03:56:19.908Z,0
2017-05-17T03:57:19.599Z,0
2017-05-17T03:58:19.969Z,0
2017-05-17T03:59:19.623Z,0
2017-05-17T04:00:19.620Z,0
2017-05-17T04:01:19.634Z,0
2017-05-17T04:02:19.661Z,0
2017-05-17T04:03:20.010Z,0
2017-05-17T04:04:19.711Z,0
2017-05-17T04:05:19.975Z,0
2017-05-17T04:06:19.722Z,0
2017-05-17T04:07:19.991Z,0
2017-05-17T04:08:19.694Z,0
2017-05-17T04:09:20.007Z,0
2017-05-17T04:10:20.015Z,0
2017-05-17T04:11:20.058Z,0
2017-05-17T04:12:19.725Z,0
2017-05-17T04:13:19.730Z,0
2017-05-17T04:14:19.795Z,0
2017-05-17T04:15:20.059Z,0
2017-05-17T04:16:20.363Z,0
2017-05-17T04:17:19.761Z,0
2017-05-17T04:18:19.765Z,0
2017-05-17T04:19:19.777Z,0
2017-05-17T04:20:20.089Z,5
2017-05-17T04:21:19.797Z,5
2017-05-17T04:22:20.110Z,5
2017-05-17T04:23:19.805Z,5
2017-05-17T04:24:19.820Z,5
2017-05-17T04:25:19.507Z,5
2017-05-17T04:26:19.833Z,5
2017-05-17T04:27:19.584Z,5
2017-05-17T04:28:20.205Z,5
2017-05-17T04:29:20.168Z,5
2017-05-17T04:30:20.181Z,5
2017-05-17T04:31:19.867Z,5
2017-05-17T04:32:19.927Z,5
2017-05-17T04:33:20.028Z,5
2017-05-17T04:34:19.636Z,5
2017-05-17T04:35:19.591Z,5
2017-05-17T04:36:19.910Z,5
2017-05-17T04:37:19.925Z,5
2017-05-17T04:38:20.233Z,5
2017-05-17T04:39:20.290Z,5
2017-05-17T04:40:20.298Z,5
2017-05-17T04:41:20.272Z,5
2017-05-17T04:42:20.259Z,5
2017-05-17T04:43:20.323Z,5
2017-05-17T04:44:19.663Z,5
2017-05-17T04:45:20.029Z,5
2017-05-17T04:46:20.597Z,5
2017-05-17T04:47:19.685Z,5
2017-05-17T04:48:20.323Z,5
2017-05-17T04:49:20.321Z,5
2017-05-17T04:50:20.018Z,5
2017-05-17T04:51:19.766Z,5
2017-05-17T04:52:20.022Z,5
2017-05-17T04:53:20.355Z,5
2017-05-17T04:54:20.364Z,5
2017-05-17T04:55:20.371Z,5
2017-05-17T04:56:19.756Z,10
2017-05-17T04:57:20.490Z,10
2017-05-17T04:58:20.130Z,10
2017-05-17T04:59:20.454Z,10
2017-05-17T05:00:20.405Z,10
2017-05-17T05:01:20.105Z,10
2017-05-17T05:02:19.902Z,15
2017-05-17T05:03:19.859Z,15
2017-05-17T05:04:20.176Z,15
2017-05-17T05:05:20.140Z,20
2017-05-17T05:06:20.455Z,20
2017-05-17T05:07:20.471Z,20
2017-05-17T05:08:19.540Z,25
2017-05-17T05:09:20.230Z,25
2017-05-17T05:10:20.184Z,30
2017-05-17T05:11:20.194Z,30
2017-05-17T05:12:19.888Z,30
2017-05-17T05:13:20.510Z,35
2017-05-17T05:14:20.521Z,35
2017-05-17T05:15:20.576Z,40
2017-05-17T05:16:20.223Z,40
2017-05-17T05:17:20.539Z,40
2017-05-17T05:18:19.939Z,40
2017-05-17T05:19:19.997Z,45
2017-05-17T05:20:20.567Z,45
2017-05-17T05:21:20.313Z,45
2017-05-17T05:22:20.375Z,45
2017-05-17T05:23:20.750Z,45
2017-05-17T05:24:20.601Z,45
2017-05-17T05:25:20.606Z,50
2017-05-17T05:26:20.306Z,50
2017-05-17T05:27:20.311Z,50
2017-05-17T05:28:20.326Z,50
2017-05-17T05:29:20.380Z,50
2017-05-17T05:30:20.027Z,45
2017-05-17T05:31:20.661Z,45
2017-05-17T05:32:20.357Z,45
2017-05-17T05:33:20.979Z,45
2017-05-17T05:34:20.416Z,45
2017-05-17T05:35:20.690Z,45
2017-05-17T05:36:20.174Z,45
2017-05-17T05:37:20.131Z,50
2017-05-17T05:38:20.406Z,50
2017-05-17T05:39:20.773Z,55
2017-05-17T05:40:20.732Z,60
2017-05-17T05:41:20.422Z,70
2017-05-17T05:42:20.482Z,85
2017-05-17T05:43:20.768Z,135
2017-05-17T05:44:20.495Z,130
2017-05-17T05:45:20.831Z,255
2017-05-17T05:46:20.778Z,165
2017-05-17T05:47:20.833Z,105
2017-05-17T05:48:19.874Z,375
2017-05-17T05:49:20.182Z,520
2017-05-17T05:50:20.812Z,505
2017-05-17T05:51:20.509Z,545
2017-05-17T05:52:20.876Z,535
2017-05-17T05:53:20.534Z,525
2017-05-17T05:54:20.843Z,550
2017-05-17T05:55:20.543Z,560
2017-05-17T05:56:20.861Z,545
2017-05-17T05:57:20.876Z,570
2017-05-17T05:58:20.938Z,565
2017-05-17T05:59:19.961Z,560
2017-05-17T06:00:20.901Z,565
2017-05-17T06:01:20.655Z,550
2017-05-17T06:02:20.973Z,600
2017-05-17T06:03:20.627Z,610
2017-05-17T06:04:20.948Z,595
2017-05-17T06:05:21.253Z,600
2017-05-17T06:06:20.653Z,630
2017-05-17T06:07:20.714Z,655
2017-05-17T06:08:20.978Z,665
2017-05-17T06:09:20.733Z,665
2017-05-17T06:10:21.003Z,625
2017-05-17T06:11:21.013Z,570
2017-05-17T06:12:21.081Z,565
2017-05-17T06:13:20.779Z,625
2017-05-17T06:14:20.735Z,665
2017-05-17T06:15:20.743Z,635
2017-05-17T06:16:21.116Z,635
2017-05-17T06:17:20.866Z,660
2017-05-17T06:18:20.825Z,710
2017-05-17T06:19:21.098Z,715
2017-05-17T06:20:20.843Z,720
2017-05-17T06:21:20.860Z,675
2017-05-17T06:22:21.129Z,625
2017-05-17T06:23:20.832Z,645
2017-05-17T06:24:20.587Z,665
2017-05-17T06:25:20.854Z,655
2017-05-17T06:26:20.862Z,640
2017-05-17T06:27:20.252Z,650
2017-05-17T06:28:21.199Z,670
2017-05-17T06:29:20.955Z,725
2017-05-17T06:30:21.268Z,750
2017-05-17T06:31:20.918Z,705
2017-05-17T06:32:20.929Z,775
2017-05-17T06:33:21.310Z,755
2017-05-17T06:34:21.276Z,670
2017-05-17T06:35:20.713Z,655
2017-05-17T06:36:20.664Z,650
2017-05-17T06:37:20.996Z,610
2017-05-17T06:38:21.008Z,665
2017-05-17T06:39:21.013Z,740
2017-05-17T06:40:21.333Z,800
2017-05-17T06:41:21.345Z,835
2017-05-17T06:42:21.100Z,830
2017-05-17T06:43:21.129Z,810
2017-05-17T06:44:21.384Z,805
2017-05-17T06:45:21.442Z,815
2017-05-17T06:46:21.193Z,820
2017-05-17T06:47:21.414Z,820
2017-05-17T06:48:20.551Z,780
2017-05-17T06:49:21.497Z,750
2017-05-17T06:50:21.456Z,785
2017-05-17T06:51:21.516Z,810
2017-05-17T06:52:21.525Z,775
2017-05-17T06:53:21.487Z,790
2017-05-17T06:54:20.939Z,845
2017-05-17T06:55:21.201Z,910
2017-05-17T06:56:21.513Z,905
2017-05-17T06:57:21.219Z,795
2017-05-17T06:58:20.617Z,745
2017-05-17T06:59:21.302Z,795
2017-05-17T07:00:21.048Z,860
2017-05-17T07:01:21.276Z,870
2017-05-17T07:02:21.335Z,855
2017-05-17T07:03:20.361Z,875
2017-05-17T07:04:21.307Z,825
2017-05-17T07:05:20.697Z,810
2017-05-17T07:06:21.642Z,915
2017-05-17T07:07:21.396Z,935
2017-05-17T07:08:21.097Z,945
2017-05-17T07:09:21.063Z,955
2017-05-17T07:10:21.740Z,965
2017-05-17T07:11:21.390Z,970
2017-05-17T07:12:21.402Z,945
2017-05-17T07:13:21.735Z,815
2017-05-17T07:14:21.164Z,905
2017-05-17T07:15:21.490Z,1010
2017-05-17T07:16:21.144Z,1060
2017-05-17T07:17:21.517Z,1050
2017-05-17T07:18:20.859Z,1040
2017-05-17T07:19:21.905Z,915
2017-05-17T07:20:21.510Z,1020
2017-05-17T07:21:21.927Z,1015
2017-05-17T07:22:21.887Z,1050
2017-05-17T07:23:21.898Z,985
2017-05-17T07:24:21.599Z,630
2017-05-17T07:25:21.567Z,675
2017-05-17T07:26:21.581Z,1030
2017-05-17T07:27:21.332Z,1045
2017-05-17T07:28:21.931Z,885
2017-05-17T07:29:21.623Z,605
2017-05-17T07:30:21.939Z,225
2017-05-17T07:31:21.947Z,85
2017-05-17T07:32:21.346Z,75
2017-05-17T07:33:21.655Z,75
2017-05-17T07:34:21.461Z,75
2017-05-17T07:35:21.682Z,75
2017-05-17T07:36:22.343Z,70
2017-05-17T07:37:21.750Z,70
2017-05-17T07:38:21.712Z,70
2017-05-17T07:39:21.723Z,70
2017-05-17T07:40:21.747Z,70
2017-05-17T07:41:22.100Z,70
2017-05-17T07:42:21.756Z,65
2017-05-17T07:43:21.139Z,65
2017-05-17T07:44:21.772Z,65
2017-05-17T07:45:21.514Z,65
2017-05-17T07:46:21.215Z,65
2017-05-17T07:47:21.850Z,65
2017-05-17T07:48:21.494Z,65
2017-05-17T07:49:21.814Z,65
2017-05-17T07:50:21.826Z,65
2017-05-17T07:51:21.836Z,65
2017-05-17T07:52:22.201Z,65
2017-05-17T07:53:22.214Z,65
2017-05-17T07:54:21.913Z,60
2017-05-17T07:55:21.607Z,60
2017-05-17T07:56:22.275Z,60
2017-05-17T07:57:22.198Z,60
2017-05-17T07:58:22.210Z,60
2017-05-17T07:59:21.906Z,60
2017-05-17T08:00:22.230Z,60
2017-05-17T08:01:21.921Z,60
2017-05-17T08:02:22.293Z,60
2017-05-17T08:03:21.677Z,60
2017-05-17T08:04:21.688Z,60
2017-05-17T08:05:21.958Z,60
2017-05-17T08:06:22.277Z,60
2017-05-17T08:07:22.336Z,60
2017-05-17T08:08:22.034Z,60
2017-05-17T08:09:21.682Z,60
2017-05-17T08:10:22.003Z,60
2017-05-17T08:11:21.697Z,60
2017-05-17T08:12:21.707Z,60
2017-05-17T08:13:21.716Z,60
2017-05-17T08:14:22.034Z,60
2017-05-17T08:15:22.092Z,60
2017-05-17T08:16:22.411Z,60
2017-05-17T08:17:22.376Z,60
2017-05-17T08:18:22.383Z,60
2017-05-17T08:19:22.085Z,60
2017-05-17T08:20:22.401Z,60
2017-05-17T08:21:22.420Z,60
2017-05-17T08:22:22.415Z,60
2017-05-17T08:23:22.120Z,60
2017-05-17T08:24:22.176Z,60
2017-05-17T08:25:22.134Z,60
2017-05-17T08:26:22.451Z,60
2017-05-17T08:27:21.842Z,60
2017-05-17T08:28:22.469Z,60
2017-05-17T08:29:22.171Z,55
2017-05-17T08:30:22.230Z,55
2017-05-17T08:31:22.186Z,55
2017-05-17T08:32:22.195Z,55
2017-05-17T08:33:22.516Z,55
2017-05-17T08:34:22.219Z,55
2017-05-17T08:35:22.224Z,55
2017-05-17T08:36:22.598Z,55
2017-05-17T08:37:22.551Z,55
2017-05-17T08:38:21.933Z,55
2017-05-17T08:39:22.256Z,50
2017-05-17T08:40:22.610Z,55
2017-05-17T08:41:22.581Z,55
2017-05-17T08:42:22.591Z,60
2017-05-17T08:43:21.985Z,60
2017-05-17T08:44:22.612Z,60
2017-05-17T08:45:22.303Z,60
2017-05-17T08:46:22.681Z,60
2017-05-17T08:47:22.634Z,60
2017-05-17T08:48:22.646Z,65
2017-05-17T08:49:22.341Z,65
2017-05-17T08:50:22.349Z,65
2017-05-17T08:51:22.358Z,65
2017-05-17T08:52:22.368Z,65
2017-05-17T08:53:22.118Z,70
2017-05-17T08:54:21.765Z,70
2017-05-17T08:55:22.388Z,70
2017-05-17T08:56:22.719Z,70
2017-05-17T08:57:22.730Z,70
2017-05-17T08:58:22.419Z,70
2017-05-17T08:59:22.438Z,70
2017-05-17T09:00:22.435Z,70
2017-05-17T09:01:22.442Z,70
2017-05-17T09:02:22.764Z,70
2017-05-17T09:03:22.785Z,70
2017-05-17T09:04:22.787Z,75
2017-05-17T09:05:22.792Z,75
2017-05-17T09:06:22.490Z,70
2017-05-17T09:07:22.813Z,70
2017-05-17T09:08:22.822Z,70
2017-05-17T09:09:22.207Z,70
2017-05-17T09:10:22.836Z,70
2017-05-17T09:11:22.531Z,70
2017-05-17T09:12:22.545Z,70
2017-05-17T09:13:21.929Z,70
2017-05-17T09:14:22.884Z,70
2017-05-17T09:15:22.259Z,70
2017-05-17T09:16:22.269Z,70
2017-05-17T09:17:22.898Z,70
2017-05-17T09:18:22.594Z,70
2017-05-17T09:19:22.659Z,70
2017-05-17T09:20:22.609Z,70
2017-05-17T09:21:22.694Z,70
2017-05-17T09:22:22.323Z,70
2017-05-17T09:23:22.948Z,70
2017-05-17T09:24:22.966Z,70
2017-05-17T09:26:22.982Z,70
2017-05-17T09:27:22.364Z,70
2017-05-17T09:28:22.685Z,70
2017-05-17T09:29:22.066Z,70
2017-05-17T09:30:23.008Z,70
2017-05-17T09:31:22.393Z,70
2017-05-17T09:32:22.403Z,70
2017-05-17T09:33:23.040Z,70
2017-05-17T09:34:22.749Z,70
2017-05-17T09:35:22.741Z,65
2017-05-17T09:36:22.129Z,65
2017-05-17T09:37:23.068Z,65
2017-05-17T09:38:22.467Z,65
2017-05-17T09:39:23.091Z,65
2017-05-17T09:40:22.473Z,65
2017-05-17T09:41:23.156Z,65
2017-05-17T09:42:22.498Z,65
2017-05-17T09:43:23.128Z,65
2017-05-17T09:44:22.509Z,65
2017-05-17T09:45:23.191Z,65
2017-05-17T09:46:23.146Z,65
2017-05-17T09:47:22.849Z,65
2017-05-17T09:48:21.983Z,65
2017-05-17T09:49:22.872Z,65
2017-05-17T09:50:22.559Z,65
2017-05-17T09:51:22.885Z,60
2017-05-17T09:52:22.975Z,65
2017-05-17T09:53:22.908Z,65
2017-05-17T09:54:23.223Z,65
2017-05-17T09:55:22.917Z,60
2017-05-17T09:56:22.669Z,60
2017-05-17T09:57:23.248Z,60
2017-05-17T09:58:23.308Z,60
2017-05-17T09:59:23.006Z,60
2017-05-17T10:00:23.275Z,60
2017-05-17T10:01:23.024Z,60
2017-05-17T10:02:23.291Z,60
2017-05-17T10:03:22.983Z,60
2017-05-17T10:04:23.313Z,60
2017-05-17T10:05:23.051Z,60
2017-05-17T10:06:23.368Z,60
2017-05-17T10:07:23.023Z,60
2017-05-17T10:08:22.715Z,60
2017-05-17T10:09:22.776Z,60
2017-05-17T10:10:23.352Z,60
2017-05-17T10:11:22.478Z,60
2017-05-17T10:12:22.443Z,60
2017-05-17T10:13:23.072Z,60
2017-05-17T10:14:23.386Z,60
2017-05-17T10:15:22.519Z,60
2017-05-17T10:16:23.455Z,60
2017-05-17T10:17:22.789Z,60
2017-05-17T10:18:23.430Z,60
2017-05-17T10:19:23.196Z,60
2017-05-17T10:20:23.127Z,60
2017-05-17T10:21:22.515Z,60
2017-05-17T10:22:23.145Z,60
2017-05-17T10:23:23.517Z,60
2017-05-17T10:24:23.169Z,60
2017-05-17T10:25:23.234Z,60
2017-05-17T10:26:22.873Z,60
2017-05-17T10:27:23.498Z,60
2017-05-17T10:28:23.253Z,60
2017-05-17T10:29:23.574Z,60
2017-05-17T10:30:23.523Z,60
2017-05-17T10:31:23.326Z,60
2017-05-17T10:32:23.281Z,60
2017-05-17T10:33:22.421Z,60
2017-05-17T10:34:23.562Z,60
2017-05-17T10:35:22.637Z,60
2017-05-17T10:36:23.261Z,60
2017-05-17T10:37:23.320Z,60
2017-05-17T10:38:23.293Z,60
2017-05-17T10:39:23.289Z,60
2017-05-17T10:40:23.358Z,60
2017-05-17T10:41:23.007Z,60
2017-05-17T10:42:23.058Z,60
2017-05-17T10:43:23.376Z,60
2017-05-17T10:44:23.657Z,55
2017-05-17T10:45:23.664Z,65
2017-05-17T10:46:23.666Z,60
2017-05-17T10:47:23.058Z,60
2017-05-17T10:48:23.686Z,60
2017-05-17T10:49:23.698Z,60
2017-05-17T10:50:23.390Z,60
2017-05-17T10:51:23.082Z,55
2017-05-17T10:52:23.450Z,55
2017-05-17T10:53:22.791Z,55
2017-05-17T10:54:23.785Z,55
2017-05-17T10:55:23.430Z,55
2017-05-17T10:56:23.488Z,55
2017-05-17T10:57:23.450Z,55
2017-05-17T10:58:23.142Z,55
2017-05-17T10:59:23.883Z,55
2017-05-17T11:00:23.799Z,55
2017-05-17T11:01:23.797Z,55
2017-05-17T11:02:23.489Z,55
2017-05-17T11:03:23.600Z,55
2017-05-17T11:04:23.509Z,55
2017-05-17T11:05:23.203Z,55
2017-05-17T11:06:23.212Z,55
2017-05-17T11:07:22.916Z,55
2017-05-17T11:08:23.602Z,55
2017-05-17T11:09:23.862Z,55
2017-05-17T11:10:22.936Z,55
2017-05-17T11:11:23.571Z,55
2017-05-17T11:12:23.321Z,55
2017-05-17T11:13:23.594Z,55
2017-05-17T11:14:23.698Z,55
2017-05-17T11:15:23.915Z,55
2017-05-17T11:16:23.619Z,55
2017-05-17T11:17:23.362Z,55
2017-05-17T11:18:23.371Z,55
2017-05-17T11:19:23.958Z,55
2017-05-17T11:20:23.959Z,55
2017-05-17T11:21:24.057Z,55
2017-05-17T11:22:23.407Z,55
2017-05-17T11:23:23.102Z,50
2017-05-17T11:24:23.434Z,50
2017-05-17T11:25:23.739Z,50
2017-05-17T11:26:23.387Z,50
2017-05-17T11:27:23.600Z,50
2017-05-17T11:28:24.031Z,50
2017-05-17T11:29:23.726Z,50
2017-05-17T11:30:23.783Z,50
2017-05-17T11:31:23.739Z,50
2017-05-17T11:32:23.750Z,50
2017-05-17T11:33:24.177Z,50
2017-05-17T11:34:23.866Z,50
2017-05-17T11:35:23.827Z,50
2017-05-17T11:36:23.784Z,50
2017-05-17T11:37:24.171Z,50
2017-05-17T11:38:23.803Z,50
2017-05-17T11:39:24.142Z,50
2017-05-17T11:40:23.871Z,50
2017-05-17T11:41:23.842Z,50
2017-05-17T11:42:24.198Z,50
2017-05-17T11:43:23.542Z,50
2017-05-17T11:44:24.173Z,50
2017-05-17T11:45:23.962Z,45
2017-05-17T11:46:24.185Z,45
2017-05-17T11:47:23.321Z,45
2017-05-17T11:48:23.578Z,45
2017-05-17T11:49:23.281Z,50
2017-05-17T11:50:23.953Z,45
2017-05-17T11:51:24.281Z,45
2017-05-17T11:52:23.977Z,45
2017-05-17T11:53:24.260Z,45
2017-05-17T11:54:23.998Z,45
2017-05-17T11:55:23.693Z,45
2017-05-17T11:56:24.268Z,45
2017-05-17T11:57:23.967Z,45
2017-05-17T11:58:24.037Z,45
2017-05-17T11:59:23.988Z,45
2017-05-17T12:00:23.784Z,45
2017-05-17T12:01:24.053Z,45
2017-05-17T12:02:24.009Z,45
2017-05-17T12:03:24.386Z,45
2017-05-17T12:04:23.716Z,45
2017-05-17T12:05:24.043Z,45
2017-05-17T12:06:23.783Z,45
2017-05-17T12:07:24.051Z,45
2017-05-17T12:08:24.373Z,45
2017-05-17T12:09:23.820Z,45
2017-05-17T12:10:24.390Z,45
2017-05-17T12:11:24.094Z,45
2017-05-17T12:12:23.527Z,45
2017-05-17T12:13:23.796Z,45
2017-05-17T12:14:24.435Z,45
2017-05-17T12:15:24.436Z,45
2017-05-17T12:16:24.130Z,45
2017-05-17T12:17:24.508Z,45
2017-05-17T12:18:23.891Z,45
2017-05-17T12:19:23.952Z,45
2017-05-17T12:20:24.166Z,45
2017-05-17T12:21:24.230Z,45
2017-05-17T12:22:24.215Z,45
2017-05-17T12:23:24.621Z,40
2017-05-17T12:24:24.206Z,45
2017-05-17T12:25:24.677Z,40
2017-05-17T12:26:24.220Z,40
2017-05-17T12:27:24.279Z,40
2017-05-17T12:28:24.246Z,40
2017-05-17T12:29:23.990Z,40
2017-05-17T12:30:23.633Z,40
2017-05-17T12:31:24.634Z,40
2017-05-17T12:32:24.590Z,40
2017-05-17T12:33:24.653Z,40
2017-05-17T12:34:24.305Z,40
2017-05-17T12:35:24.355Z,40
2017-05-17T12:36:24.637Z,40
2017-05-17T12:37:24.979Z,40
2017-05-17T12:38:24.328Z,40
2017-05-17T12:39:23.723Z,40
2017-05-17T12:40:24.347Z,40
2017-05-17T12:41:24.716Z,40
2017-05-17T12:42:24.676Z,40
2017-05-17T12:43:24.739Z,40
2017-05-17T12:44:23.763Z,40
2017-05-17T12:45:24.698Z,40
2017-05-17T12:46:24.184Z,40
2017-05-17T12:47:24.452Z,40
2017-05-17T12:48:24.742Z,40
2017-05-17T12:49:24.425Z,35
2017-05-17T12:50:24.443Z,35
2017-05-17T12:51:24.443Z,35
2017-05-17T12:52:24.822Z,35
2017-05-17T12:53:24.510Z,35
2017-05-17T12:54:24.795Z,35
2017-05-17T12:55:24.480Z,35
2017-05-17T12:56:24.494Z,35
2017-05-17T12:57:24.498Z,35
2017-05-17T12:58:24.509Z,35
2017-05-17T12:59:24.568Z,35
2017-05-17T13:00:24.570Z,35
2017-05-17T13:01:24.532Z,35
2017-05-17T13:02:24.950Z,35
2017-05-17T13:03:24.547Z,35
2017-05-17T13:04:24.560Z,35
2017-05-17T13:05:24.622Z,35
2017-05-17T13:06:24.884Z,35
2017-05-17T13:07:24.633Z,35
2017-05-17T13:08:24.910Z,35
2017-05-17T13:09:24.965Z,35
2017-05-17T13:10:24.609Z,35
2017-05-17T13:11:24.933Z,35
2017-05-17T13:12:24.364Z,35
2017-05-17T13:13:24.701Z,35
2017-05-17T13:14:24.700Z,35
2017-05-17T13:15:24.654Z,35
2017-05-17T13:16:24.973Z,35
2017-05-17T13:17:24.365Z,35
2017-05-17T13:18:24.782Z,35
2017-05-17T13:19:24.997Z,35
2017-05-17T13:20:24.743Z,35
2017-05-17T13:21:25.018Z,35
2017-05-17T13:22:25.083Z,35
2017-05-17T13:23:25.049Z,35
2017-05-17T13:24:24.736Z,35
2017-05-17T13:25:24.737Z,35
2017-05-17T13:26:25.111Z,35
2017-05-17T13:27:24.758Z,35
2017-05-17T13:28:25.077Z,35
2017-05-17T13:29:24.777Z,35
2017-05-17T13:30:25.098Z,35
2017-05-17T13:31:25.201Z,35
2017-05-17T13:32:25.112Z,35
2017-05-17T13:33:24.810Z,35
2017-05-17T13:34:24.199Z,35
2017-05-17T13:35:24.612Z,35
2017-05-17T13:36:24.522Z,35
2017-05-17T13:37:24.894Z,35
2017-05-17T13:38:25.163Z,35
2017-05-17T13:39:24.860Z,35
2017-05-17T13:40:25.238Z,35
2017-05-17T13:41:24.625Z,35
2017-05-17T13:42:24.622Z,35
2017-05-17T13:43:24.898Z,35
2017-05-17T13:44:24.956Z,35
2017-05-17T13:45:24.918Z,35
2017-05-17T13:46:24.974Z,35
2017-05-17T13:47:24.354Z,35
2017-05-17T13:48:25.302Z,35
2017-05-17T13:49:25.315Z,35
2017-05-17T13:50:24.958Z,35
2017-05-17T13:51:24.652Z,35
2017-05-17T13:52:25.021Z,35
2017-05-17T13:53:24.671Z,35
2017-05-17T13:54:25.352Z,35
2017-05-17T13:55:24.685Z,35
2017-05-17T13:56:25.010Z,35
2017-05-17T13:57:24.753Z,35
2017-05-17T13:58:25.084Z,35
2017-05-17T13:59:24.728Z,35
2017-05-17T14:00:25.358Z,35
2017-05-17T14:01:25.417Z,35
2017-05-17T14:02:25.169Z,35
2017-05-17T14:03:25.079Z,35
2017-05-17T14:04:25.085Z,35
2017-05-17T14:05:24.827Z,35
2017-05-17T14:06:25.401Z,35
2017-05-17T14:07:25.469Z,35
2017-05-17T14:08:25.474Z,35
2017-05-17T14:09:25.435Z,35
2017-05-17T14:10:24.870Z,35
2017-05-17T14:11:25.441Z,35
2017-05-17T14:12:25.197Z,35
2017-05-17T14:13:25.210Z,35
2017-05-17T14:14:25.533Z,35
2017-05-17T14:15:24.864Z,35
2017-05-17T14:16:25.237Z,35
2017-05-17T14:17:25.195Z,35
2017-05-17T14:18:25.253Z,35
2017-05-17T14:19:24.906Z,35
2017-05-17T14:20:25.260Z,35
2017-05-17T14:21:25.587Z,35
2017-05-17T14:22:25.546Z,35